sensor_id;sensor_type;location;lat;lon;timestamp;temperature;humidity
38458;DHT22;24239;48.058;10.486;2022-12-07T00:01:40;1.90;99.90
38458;DHT22;24239;48.058;10.486;2022-12-07T00:04:07;1.90;99.90
38458;DHT22;24239;48.058;10.486;2022-12-07T00:06:45;2.00;99.90
38458;DHT22;24239;48.058;10.486;2022-12-07T00:09:17;1.90;99.90
38458;DHT22;24239;48.058;10.486;2022-12-07T00:11:44;2.00;99.90
38458;DHT22;24239;48.058;10.486;2022-12-07T00:14:12;1.90;99.90
38458;DHT22;24239;48.058;10.486;2022-12-07T00:16:39;1.90;99.90
38458;DHT22;24239;48.058;10.486;2022-12-07T00:19:05;1.90;99.90
38458;DHT22;24239;48.058;10.486;2022-12-07T00:21:35;2.00;99.90
38458;DHT22;24239;48.058;10.486;2022-12-07T00:24:02;1.90;99.90
38458;DHT22;24239;48.058;10.486;2022-12-07T00:26:31;1.90;99.90
38458;DHT22;24239;48.058;10.486;2022-12-07T00:29:03;1.80;99.90
38458;DHT22;24239;48.058;10.486;2022-12-07T00:31:32;1.90;99.90
38458;DHT22;24239;48.058;10.486;2022-12-07T00:34:05;1.90;99.90
38458;DHT22;24239;48.058;10.486;2022-12-07T00:36:31;2.00;99.90
38458;DHT22;24239;48.058;10.486;2022-12-07T00:38:58;1.90;99.90
38458;DHT22;24239;48.058;10.486;2022-12-07T00:41:28;1.90;99.90
38458;DHT22;24239;48.058;10.486;2022-12-07T00:43:55;2.10;99.90
38458;DHT22;24239;48.058;10.486;2022-12-07T00:46:21;2.00;99.90
38458;DHT22;24239;48.058;10.486;2022-12-07T00:48:48;1.90;99.90
38458;DHT22;24239;48.058;10.486;2022-12-07T00:51:19;2.00;99.90
38458;DHT22;24239;48.058;10.486;2022-12-07T00:53:45;1.90;99.90
38458;DHT22;24239;48.058;10.486;2022-12-07T00:56:15;1.90;99.90
38458;DHT22;24239;48.058;10.486;2022-12-07T00:58:42;1.90;99.90
38458;DHT22;24239;48.058;10.486;2022-12-07T01:01:09;1.90;99.90
38458;DHT22;24239;48.058;10.486;2022-12-07T01:03:35;2.00;99.90
38458;DHT22;24239;48.058;10.486;2022-12-07T01:06:02;2.00;99.90
38458;DHT22;24239;48.058;10.486;2022-12-07T01:08:28;2.00;99.90
38458;DHT22;24239;48.058;10.486;2022-12-07T01:11:04;1.90;99.90
38458;DHT22;24239;48.058;10.486;2022-12-07T01:13:31;1.80;99.90
38458;DHT22;24239;48.058;10.486;2022-12-07T01:15:59;2.00;99.90
38458;DHT22;24239;48.058;10.486;2022-12-07T01:18:27;1.90;99.90
38458;DHT22;24239;48.058;10.486;2022-12-07T01:21:13;1.90;99.90
38458;DHT22;24239;48.058;10.486;2022-12-07T01:23:39;1.90;99.90
38458;DHT22;24239;48.058;10.486;2022-12-07T01:26:09;1.90;99.90
38458;DHT22;24239;48.058;10.486;2022-12-07T01:28:35;1.90;99.90
38458;DHT22;24239;48.058;10.486;2022-12-07T01:31:04;1.90;99.90
38458;DHT22;24239;48.058;10.486;2022-12-07T01:33:34;2.10;99.90
38458;DHT22;24239;48.058;10.486;2022-12-07T01:36:06;2.00;99.90
38458;DHT22;24239;48.058;10.486;2022-12-07T01:38:32;1.90;99.90
38458;DHT22;24239;48.058;10.486;2022-12-07T01:40:59;1.90;99.90
38458;DHT22;24239;48.058;10.486;2022-12-07T01:43:27;1.90;99.90
38458;DHT22;24239;48.058;10.486;2022-12-07T01:45:54;1.80;99.90
38458;DHT22;24239;48.058;10.486;2022-12-07T01:48:34;1.90;99.90
38458;DHT22;24239;48.058;10.486;2022-12-07T01:51:05;1.90;99.90
38458;DHT22;24239;48.058;10.486;2022-12-07T01:53:35;1.90;99.90
38458;DHT22;24239;48.058;10.486;2022-12-07T01:56:02;1.80;99.90
38458;DHT22;24239;48.058;10.486;2022-12-07T01:58:31;1.80;99.90
38458;DHT22;24239;48.058;10.486;2022-12-07T02:00:57;1.80;99.90
38458;DHT22;24239;48.058;10.486;2022-12-07T02:03:36;1.80;99.90
38458;DHT22;24239;48.058;10.486;2022-12-07T02:06:04;1.90;99.90
38458;DHT22;24239;48.058;10.486;2022-12-07T02:08:31;1.90;99.90
38458;DHT22;24239;48.058;10.486;2022-12-07T02:10:57;1.90;99.90
38458;DHT22;24239;48.058;10.486;2022-12-07T02:13:25;1.80;99.90
38458;DHT22;24239;48.058;10.486;2022-12-07T02:16:18;1.80;99.90
38458;DHT22;24239;48.058;10.486;2022-12-07T02:28:38;1.70;99.90
38458;DHT22;24239;48.058;10.486;2022-12-07T02:38:55;1.50;99.90
38458;DHT22;24239;48.058;10.486;2022-12-07T02:44:07;1.40;99.90
38458;DHT22;24239;48.058;10.486;2022-12-07T02:46:42;1.40;99.90
38458;DHT22;24239;48.058;10.486;2022-12-07T02:49:14;1.40;99.90
38458;DHT22;24239;48.058;10.486;2022-12-07T02:51:46;1.40;99.90
38458;DHT22;24239;48.058;10.486;2022-12-07T02:54:18;1.40;99.90
38458;DHT22;24239;48.058;10.486;2022-12-07T03:05:18;1.40;99.90
38458;DHT22;24239;48.058;10.486;2022-12-07T03:17:21;1.40;99.90
38458;DHT22;24239;48.058;10.486;2022-12-07T03:19:49;1.40;99.90
38458;DHT22;24239;48.058;10.486;2022-12-07T03:22:19;1.50;99.90
38458;DHT22;24239;48.058;10.486;2022-12-07T03:25:00;1.40;99.90
38458;DHT22;24239;48.058;10.486;2022-12-07T03:27:57;1.40;99.90
38458;DHT22;24239;48.058;10.486;2022-12-07T03:33:21;1.50;99.90
38458;DHT22;24239;48.058;10.486;2022-12-07T03:36:04;1.40;99.90
38458;DHT22;24239;48.058;10.486;2022-12-07T03:38:45;1.30;99.90
38458;DHT22;24239;48.058;10.486;2022-12-07T03:41:21;1.30;99.90
38458;DHT22;24239;48.058;10.486;2022-12-07T03:43:51;1.30;99.90
38458;DHT22;24239;48.058;10.486;2022-12-07T03:46:43;1.40;99.90
38458;DHT22;24239;48.058;10.486;2022-12-07T03:49:17;1.30;99.90
38458;DHT22;24239;48.058;10.486;2022-12-07T03:52:03;1.10;99.90
38458;DHT22;24239;48.058;10.486;2022-12-07T03:54:39;1.20;99.90
38458;DHT22;24239;48.058;10.486;2022-12-07T03:57:19;1.20;99.90
38458;DHT22;24239;48.058;10.486;2022-12-07T03:59:51;1.30;99.90
38458;DHT22;24239;48.058;10.486;2022-12-07T04:02:17;1.30;99.90
38458;DHT22;24239;48.058;10.486;2022-12-07T04:04:47;1.20;99.90
38458;DHT22;24239;48.058;10.486;2022-12-07T04:07:16;1.20;99.90
38458;DHT22;24239;48.058;10.486;2022-12-07T04:09:44;1.20;99.90
38458;DHT22;24239;48.058;10.486;2022-12-07T04:12:16;1.20;99.90
38458;DHT22;24239;48.058;10.486;2022-12-07T04:14:42;1.20;99.90
38458;DHT22;24239;48.058;10.486;2022-12-07T04:17:08;1.20;99.90
38458;DHT22;24239;48.058;10.486;2022-12-07T04:19:34;1.20;99.90
38458;DHT22;24239;48.058;10.486;2022-12-07T04:22:02;1.10;99.90
38458;DHT22;24239;48.058;10.486;2022-12-07T04:24:28;1.10;99.90
38458;DHT22;24239;48.058;10.486;2022-12-07T04:27:16;1.10;99.90
38458;DHT22;24239;48.058;10.486;2022-12-07T04:43:26;1.10;99.90
38458;DHT22;24239;48.058;10.486;2022-12-07T04:46:34;1.20;99.90
38458;DHT22;24239;48.058;10.486;2022-12-07T04:49:00;1.10;99.90
38458;DHT22;24239;48.058;10.486;2022-12-07T04:51:28;1.10;99.90
38458;DHT22;24239;48.058;10.486;2022-12-07T04:54:14;1.20;99.90
38458;DHT22;24239;48.058;10.486;2022-12-07T04:56:40;1.10;99.90
38458;DHT22;24239;48.058;10.486;2022-12-07T04:59:07;1.20;99.90
38458;DHT22;24239;48.058;10.486;2022-12-07T05:01:33;1.20;99.90
38458;DHT22;24239;48.058;10.486;2022-12-07T05:08:31;1.10;99.90
38458;DHT22;24239;48.058;10.486;2022-12-07T05:11:26;1.20;99.90
38458;DHT22;24239;48.058;10.486;2022-12-07T05:16:54;1.20;99.90
38458;DHT22;24239;48.058;10.486;2022-12-07T05:19:22;1.20;99.90
38458;DHT22;24239;48.058;10.486;2022-12-07T05:22:03;1.10;99.90
38458;DHT22;24239;48.058;10.486;2022-12-07T05:24:31;1.10;99.90
38458;DHT22;24239;48.058;10.486;2022-12-07T05:26:57;1.10;99.90
38458;DHT22;24239;48.058;10.486;2022-12-07T05:29:23;1.30;99.90
38458;DHT22;24239;48.058;10.486;2022-12-07T05:31:49;1.10;99.90
38458;DHT22;24239;48.058;10.486;2022-12-07T05:34:15;1.20;99.90
38458;DHT22;24239;48.058;10.486;2022-12-07T05:36:40;1.10;99.90
38458;DHT22;24239;48.058;10.486;2022-12-07T05:39:07;1.00;99.90
38458;DHT22;24239;48.058;10.486;2022-12-07T05:41:33;1.20;99.90
38458;DHT22;24239;48.058;10.486;2022-12-07T05:44:17;1.10;99.90
38458;DHT22;24239;48.058;10.486;2022-12-07T05:46:43;1.20;99.90
38458;DHT22;24239;48.058;10.486;2022-12-07T05:49:09;1.10;99.90
38458;DHT22;24239;48.058;10.486;2022-12-07T05:51:38;1.10;99.90
38458;DHT22;24239;48.058;10.486;2022-12-07T05:54:03;1.20;99.90
38458;DHT22;24239;48.058;10.486;2022-12-07T05:56:29;1.20;99.90
38458;DHT22;24239;48.058;10.486;2022-12-07T05:58:55;1.20;99.90
38458;DHT22;24239;48.058;10.486;2022-12-07T06:01:40;1.20;99.90
38458;DHT22;24239;48.058;10.486;2022-12-07T06:04:06;1.20;99.90
38458;DHT22;24239;48.058;10.486;2022-12-07T06:06:31;1.10;99.90
38458;DHT22;24239;48.058;10.486;2022-12-07T06:08:57;1.20;99.90
38458;DHT22;24239;48.058;10.486;2022-12-07T06:11:23;1.10;99.90
38458;DHT22;24239;48.058;10.486;2022-12-07T06:14:10;1.20;99.90
38458;DHT22;24239;48.058;10.486;2022-12-07T06:16:36;1.20;99.90
38458;DHT22;24239;48.058;10.486;2022-12-07T06:19:04;1.20;99.90
38458;DHT22;24239;48.058;10.486;2022-12-07T06:21:30;1.40;99.90
38458;DHT22;24239;48.058;10.486;2022-12-07T06:23:56;1.20;99.90
38458;DHT22;24239;48.058;10.486;2022-12-07T06:26:22;1.30;99.90
38458;DHT22;24239;48.058;10.486;2022-12-07T06:29:00;1.10;99.90
38458;DHT22;24239;48.058;10.486;2022-12-07T06:31:26;1.10;99.90
38458;DHT22;24239;48.058;10.486;2022-12-07T06:34:03;1.10;99.90
38458;DHT22;24239;48.058;10.486;2022-12-07T06:36:30;1.10;99.90
38458;DHT22;24239;48.058;10.486;2022-12-07T06:38:56;1.20;99.90
38458;DHT22;24239;48.058;10.486;2022-12-07T06:41:22;1.00;99.90
38458;DHT22;24239;48.058;10.486;2022-12-07T06:43:49;1.00;99.90
38458;DHT22;24239;48.058;10.486;2022-12-07T06:46:15;1.10;99.90
38458;DHT22;24239;48.058;10.486;2022-12-07T06:48:42;1.10;99.90
38458;DHT22;24239;48.058;10.486;2022-12-07T06:51:08;1.10;99.90
38458;DHT22;24239;48.058;10.486;2022-12-07T06:53:35;1.20;99.90
38458;DHT22;24239;48.058;10.486;2022-12-07T06:56:01;1.10;99.90
38458;DHT22;24239;48.058;10.486;2022-12-07T06:58:27;1.10;99.90
38458;DHT22;24239;48.058;10.486;2022-12-07T07:00:53;1.20;99.90
38458;DHT22;24239;48.058;10.486;2022-12-07T07:03:19;1.00;99.90
38458;DHT22;24239;48.058;10.486;2022-12-07T07:05:46;1.10;99.90
38458;DHT22;24239;48.058;10.486;2022-12-07T07:08:15;1.00;99.90
38458;DHT22;24239;48.058;10.486;2022-12-07T07:10:41;0.60;99.90
38458;DHT22;24239;48.058;10.486;2022-12-07T07:13:07;1.00;99.90
38458;DHT22;24239;48.058;10.486;2022-12-07T07:15:34;1.10;99.90
38458;DHT22;24239;48.058;10.486;2022-12-07T07:18:00;1.00;99.90
38458;DHT22;24239;48.058;10.486;2022-12-07T07:20:27;1.00;99.90
38458;DHT22;24239;48.058;10.486;2022-12-07T07:22:56;1.20;99.90
38458;DHT22;24239;48.058;10.486;2022-12-07T07:25:22;1.10;99.90
38458;DHT22;24239;48.058;10.486;2022-12-07T07:27:48;1.10;99.90
38458;DHT22;24239;48.058;10.486;2022-12-07T07:34:15;1.10;99.90
38458;DHT22;24239;48.058;10.486;2022-12-07T07:37:27;1.20;99.90
38458;DHT22;24239;48.058;10.486;2022-12-07T07:40:31;1.10;99.90
38458;DHT22;24239;48.058;10.486;2022-12-07T07:43:16;1.10;99.90
38458;DHT22;24239;48.058;10.486;2022-12-07T07:49:36;1.30;99.90
38458;DHT22;24239;48.058;10.486;2022-12-07T07:55:28;1.30;99.90
38458;DHT22;24239;48.058;10.486;2022-12-07T08:07:19;1.40;99.90
38458;DHT22;24239;48.058;10.486;2022-12-07T08:10:51;1.30;99.90
38458;DHT22;24239;48.058;10.486;2022-12-07T08:13:54;1.40;99.90
38458;DHT22;24239;48.058;10.486;2022-12-07T08:25:14;1.50;99.90
38458;DHT22;24239;48.058;10.486;2022-12-07T08:27:51;1.50;99.90
38458;DHT22;24239;48.058;10.486;2022-12-07T08:30:26;1.70;99.90
38458;DHT22;24239;48.058;10.486;2022-12-07T08:33:50;1.60;99.90
38458;DHT22;24239;48.058;10.486;2022-12-07T08:39:59;1.70;99.90
38458;DHT22;24239;48.058;10.486;2022-12-07T08:43:19;1.80;99.90
38458;DHT22;24239;48.058;10.486;2022-12-07T08:53:51;2.20;99.90
38458;DHT22;24239;48.058;10.486;2022-12-07T09:01:41;2.20;99.90
38458;DHT22;24239;48.058;10.486;2022-12-07T09:08:04;2.40;99.90
38458;DHT22;24239;48.058;10.486;2022-12-07T09:10:55;2.40;99.90
38458;DHT22;24239;48.058;10.486;2022-12-07T09:26:04;2.70;99.90
38458;DHT22;24239;48.058;10.486;2022-12-07T09:28:36;2.60;99.90
38458;DHT22;24239;48.058;10.486;2022-12-07T09:31:16;2.60;99.90
38458;DHT22;24239;48.058;10.486;2022-12-07T09:34:09;2.60;99.90
38458;DHT22;24239;48.058;10.486;2022-12-07T09:36:38;2.70;99.90
38458;DHT22;24239;48.058;10.486;2022-12-07T09:39:13;2.60;99.90
38458;DHT22;24239;48.058;10.486;2022-12-07T09:41:49;2.70;99.90
38458;DHT22;24239;48.058;10.486;2022-12-07T09:44:34;2.80;99.90
38458;DHT22;24239;48.058;10.486;2022-12-07T09:47:22;2.90;99.90
38458;DHT22;24239;48.058;10.486;2022-12-07T09:49:50;2.90;99.90
38458;DHT22;24239;48.058;10.486;2022-12-07T09:52:35;2.90;99.90
38458;DHT22;24239;48.058;10.486;2022-12-07T09:55:02;3.00;99.90
38458;DHT22;24239;48.058;10.486;2022-12-07T09:57:32;3.00;99.90
38458;DHT22;24239;48.058;10.486;2022-12-07T10:00:32;3.10;99.90
38458;DHT22;24239;48.058;10.486;2022-12-07T10:03:11;3.20;99.90
38458;DHT22;24239;48.058;10.486;2022-12-07T10:05:45;3.10;99.90
38458;DHT22;24239;48.058;10.486;2022-12-07T10:08:12;3.10;99.90
38458;DHT22;24239;48.058;10.486;2022-12-07T10:10:39;3.20;99.90
38458;DHT22;24239;48.058;10.486;2022-12-07T10:13:08;3.20;99.90
38458;DHT22;24239;48.058;10.486;2022-12-07T10:15:52;3.30;99.90
38458;DHT22;24239;48.058;10.486;2022-12-07T10:18:29;3.30;99.90
38458;DHT22;24239;48.058;10.486;2022-12-07T10:21:18;3.30;99.90
38458;DHT22;24239;48.058;10.486;2022-12-07T10:24:01;3.20;99.90
38458;DHT22;24239;48.058;10.486;2022-12-07T10:26:34;3.20;99.90
38458;DHT22;24239;48.058;10.486;2022-12-07T10:31:39;3.10;99.90
38458;DHT22;24239;48.058;10.486;2022-12-07T10:34:22;3.00;99.90
38458;DHT22;24239;48.058;10.486;2022-12-07T10:39:53;2.80;99.90
38458;DHT22;24239;48.058;10.486;2022-12-07T10:42:27;2.80;99.90
38458;DHT22;24239;48.058;10.486;2022-12-07T10:50:53;2.50;99.90
38458;DHT22;24239;48.058;10.486;2022-12-07T11:01:50;2.50;99.90
38458;DHT22;24239;48.058;10.486;2022-12-07T11:09:44;2.40;99.90
38458;DHT22;24239;48.058;10.486;2022-12-07T11:18:09;2.50;99.90
38458;DHT22;24239;48.058;10.486;2022-12-07T11:26:15;2.40;99.90
38458;DHT22;24239;48.058;10.486;2022-12-07T11:31:25;2.40;99.90
38458;DHT22;24239;48.058;10.486;2022-12-07T11:36:45;2.40;99.90
38458;DHT22;24239;48.058;10.486;2022-12-07T11:41:48;2.40;99.90
38458;DHT22;24239;48.058;10.486;2022-12-07T11:53:05;2.90;99.90
38458;DHT22;24239;48.058;10.486;2022-12-07T12:06:44;3.70;99.90
38458;DHT22;24239;48.058;10.486;2022-12-07T12:22:42;3.50;99.90
38458;DHT22;24239;48.058;10.486;2022-12-07T12:27:53;3.30;99.90
38458;DHT22;24239;48.058;10.486;2022-12-07T12:30:45;3.30;99.90
38458;DHT22;24239;48.058;10.486;2022-12-07T12:33:29;3.20;99.90
38458;DHT22;24239;48.058;10.486;2022-12-07T12:36:26;3.30;99.90
38458;DHT22;24239;48.058;10.486;2022-12-07T13:01:41;3.60;99.90
38458;DHT22;24239;48.058;10.486;2022-12-07T13:20:08;3.60;99.90
38458;DHT22;24239;48.058;10.486;2022-12-07T13:22:39;3.60;99.90
38458;DHT22;24239;48.058;10.486;2022-12-07T13:27:38;3.60;99.90
38458;DHT22;24239;48.058;10.486;2022-12-07T13:30:18;3.60;99.90
38458;DHT22;24239;48.058;10.486;2022-12-07T13:32:55;3.60;99.90
38458;DHT22;24239;48.058;10.486;2022-12-07T13:37:57;3.60;99.90
38458;DHT22;24239;48.058;10.486;2022-12-07T13:40:26;3.50;99.90
38458;DHT22;24239;48.058;10.486;2022-12-07T13:43:03;3.50;99.90
38458;DHT22;24239;48.058;10.486;2022-12-07T13:45:32;3.50;99.90
38458;DHT22;24239;48.058;10.486;2022-12-07T13:48:24;3.40;99.90
38458;DHT22;24239;48.058;10.486;2022-12-07T13:50:55;3.50;99.90
38458;DHT22;24239;48.058;10.486;2022-12-07T13:53:22;3.40;99.90
38458;DHT22;24239;48.058;10.486;2022-12-07T13:55:48;3.30;99.90
38458;DHT22;24239;48.058;10.486;2022-12-07T13:58:14;3.30;99.90
38458;DHT22;24239;48.058;10.486;2022-12-07T14:00:41;3.20;99.90
38458;DHT22;24239;48.058;10.486;2022-12-07T14:05:43;3.30;99.90
38458;DHT22;24239;48.058;10.486;2022-12-07T14:13:36;3.10;99.90
38458;DHT22;24239;48.058;10.486;2022-12-07T14:18:51;3.00;99.90
38458;DHT22;24239;48.058;10.486;2022-12-07T14:21:23;2.90;99.90
38458;DHT22;24239;48.058;10.486;2022-12-07T14:24:14;2.80;99.90
38458;DHT22;24239;48.058;10.486;2022-12-07T14:26:48;2.80;99.90
38458;DHT22;24239;48.058;10.486;2022-12-07T14:31:54;2.60;99.90
38458;DHT22;24239;48.058;10.486;2022-12-07T14:34:21;2.60;99.90
38458;DHT22;24239;48.058;10.486;2022-12-07T14:36:47;2.40;99.90
38458;DHT22;24239;48.058;10.486;2022-12-07T14:39:13;2.40;99.90
38458;DHT22;24239;48.058;10.486;2022-12-07T14:41:39;2.30;99.90
38458;DHT22;24239;48.058;10.486;2022-12-07T14:44:22;2.20;99.90
38458;DHT22;24239;48.058;10.486;2022-12-07T14:46:49;2.10;99.90
38458;DHT22;24239;48.058;10.486;2022-12-07T14:49:15;1.80;99.90
38458;DHT22;24239;48.058;10.486;2022-12-07T14:51:42;2.00;99.90
38458;DHT22;24239;48.058;10.486;2022-12-07T14:54:19;2.00;99.90
38458;DHT22;24239;48.058;10.486;2022-12-07T14:56:45;1.70;99.90
38458;DHT22;24239;48.058;10.486;2022-12-07T14:59:17;1.70;99.90
38458;DHT22;24239;48.058;10.486;2022-12-07T15:01:44;1.50;99.90
38458;DHT22;24239;48.058;10.486;2022-12-07T15:04:10;1.40;99.90
38458;DHT22;24239;48.058;10.486;2022-12-07T15:06:36;1.30;99.90
38458;DHT22;24239;48.058;10.486;2022-12-07T15:09:02;1.30;99.90
38458;DHT22;24239;48.058;10.486;2022-12-07T15:11:28;1.20;99.90
38458;DHT22;24239;48.058;10.486;2022-12-07T15:13:54;1.20;99.90
38458;DHT22;24239;48.058;10.486;2022-12-07T15:16:42;1.10;99.90
38458;DHT22;24239;48.058;10.486;2022-12-07T15:19:22;1.00;99.90
38458;DHT22;24239;48.058;10.486;2022-12-07T15:21:49;1.00;99.90
38458;DHT22;24239;48.058;10.486;2022-12-07T15:24:15;0.80;99.90
38458;DHT22;24239;48.058;10.486;2022-12-07T15:26:41;0.90;99.90
38458;DHT22;24239;48.058;10.486;2022-12-07T15:29:08;0.70;99.90
38458;DHT22;24239;48.058;10.486;2022-12-07T15:31:34;0.50;99.90
38458;DHT22;24239;48.058;10.486;2022-12-07T15:34:01;0.50;99.90
38458;DHT22;24239;48.058;10.486;2022-12-07T15:36:29;0.40;99.90
38458;DHT22;24239;48.058;10.486;2022-12-07T15:38:56;0.50;99.90
38458;DHT22;24239;48.058;10.486;2022-12-07T15:41:23;0.40;99.90
38458;DHT22;24239;48.058;10.486;2022-12-07T15:43:48;0.30;99.90
38458;DHT22;24239;48.058;10.486;2022-12-07T15:46:35;0.40;99.90
38458;DHT22;24239;48.058;10.486;2022-12-07T15:49:01;0.30;99.90
38458;DHT22;24239;48.058;10.486;2022-12-07T15:51:33;0.30;99.90
38458;DHT22;24239;48.058;10.486;2022-12-07T15:54:00;0.20;99.90
38458;DHT22;24239;48.058;10.486;2022-12-07T15:56:25;0.10;99.90
38458;DHT22;24239;48.058;10.486;2022-12-07T15:58:52;0.20;99.90
38458;DHT22;24239;48.058;10.486;2022-12-07T16:01:19;0.10;99.90
38458;DHT22;24239;48.058;10.486;2022-12-07T16:03:45;0.10;99.90
38458;DHT22;24239;48.058;10.486;2022-12-07T16:06:12;0.10;99.90
38458;DHT22;24239;48.058;10.486;2022-12-07T16:08:46;-0.10;99.90
38458;DHT22;24239;48.058;10.486;2022-12-07T16:11:13;-0.20;99.90
38458;DHT22;24239;48.058;10.486;2022-12-07T16:13:40;-0.20;99.90
38458;DHT22;24239;48.058;10.486;2022-12-07T16:16:10;-0.20;99.90
38458;DHT22;24239;48.058;10.486;2022-12-07T16:18:36;-0.20;99.90
38458;DHT22;24239;48.058;10.486;2022-12-07T16:21:05;-0.10;99.90
38458;DHT22;24239;48.058;10.486;2022-12-07T16:23:33;-0.10;99.90
38458;DHT22;24239;48.058;10.486;2022-12-07T16:26:14;0.30;99.90
38458;DHT22;24239;48.058;10.486;2022-12-07T16:28:41;0.30;99.90
38458;DHT22;24239;48.058;10.486;2022-12-07T16:31:13;0.20;99.90
38458;DHT22;24239;48.058;10.486;2022-12-07T16:33:43;0.10;99.90
38458;DHT22;24239;48.058;10.486;2022-12-07T16:36:13;0.30;99.90
38458;DHT22;24239;48.058;10.486;2022-12-07T16:38:41;0.30;99.90
38458;DHT22;24239;48.058;10.486;2022-12-07T16:41:08;0.30;99.90
38458;DHT22;24239;48.058;10.486;2022-12-07T16:43:35;0.40;99.90
38458;DHT22;24239;48.058;10.486;2022-12-07T16:46:02;0.40;99.90
38458;DHT22;24239;48.058;10.486;2022-12-07T16:48:28;0.50;99.90
38458;DHT22;24239;48.058;10.486;2022-12-07T16:50:54;0.50;99.90
38458;DHT22;24239;48.058;10.486;2022-12-07T16:53:21;0.50;99.90
38458;DHT22;24239;48.058;10.486;2022-12-07T16:55:48;0.60;99.90
38458;DHT22;24239;48.058;10.486;2022-12-07T16:58:15;0.50;99.90
38458;DHT22;24239;48.058;10.486;2022-12-07T17:00:42;0.50;99.90
38458;DHT22;24239;48.058;10.486;2022-12-07T17:03:08;0.70;99.90
38458;DHT22;24239;48.058;10.486;2022-12-07T17:05:41;0.70;99.90
38458;DHT22;24239;48.058;10.486;2022-12-07T17:08:07;0.70;99.90
38458;DHT22;24239;48.058;10.486;2022-12-07T17:10:37;0.70;99.90
38458;DHT22;24239;48.058;10.486;2022-12-07T17:13:04;0.50;99.90
38458;DHT22;24239;48.058;10.486;2022-12-07T17:16:01;0.80;99.90
38458;DHT22;24239;48.058;10.486;2022-12-07T17:18:32;0.60;99.90
38458;DHT22;24239;48.058;10.486;2022-12-07T17:21:06;0.60;99.90
38458;DHT22;24239;48.058;10.486;2022-12-07T17:23:33;0.50;99.90
38458;DHT22;24239;48.058;10.486;2022-12-07T17:26:10;0.50;99.90
38458;DHT22;24239;48.058;10.486;2022-12-07T17:28:37;0.40;99.90
38458;DHT22;24239;48.058;10.486;2022-12-07T17:31:08;0.30;99.90
38458;DHT22;24239;48.058;10.486;2022-12-07T17:33:34;0.40;99.90
38458;DHT22;24239;48.058;10.486;2022-12-07T17:36:03;0.40;99.90
38458;DHT22;24239;48.058;10.486;2022-12-07T17:38:34;0.20;99.90
38458;DHT22;24239;48.058;10.486;2022-12-07T17:41:00;0.20;99.90
38458;DHT22;24239;48.058;10.486;2022-12-07T17:43:33;0.00;99.90
38458;DHT22;24239;48.058;10.486;2022-12-07T17:46:04;-0.10;99.90
38458;DHT22;24239;48.058;10.486;2022-12-07T17:48:32;-0.20;99.90
38458;DHT22;24239;48.058;10.486;2022-12-07T17:51:02;-0.30;99.90
38458;DHT22;24239;48.058;10.486;2022-12-07T17:53:52;-0.50;99.90
38458;DHT22;24239;48.058;10.486;2022-12-07T17:56:18;-0.60;99.90
38458;DHT22;24239;48.058;10.486;2022-12-07T17:58:47;-0.80;99.90
38458;DHT22;24239;48.058;10.486;2022-12-07T18:01:13;-0.60;99.90
38458;DHT22;24239;48.058;10.486;2022-12-07T18:03:38;-0.90;99.90
38458;DHT22;24239;48.058;10.486;2022-12-07T18:06:04;-0.80;99.90
38458;DHT22;24239;48.058;10.486;2022-12-07T18:08:34;-1.00;99.90
38458;DHT22;24239;48.058;10.486;2022-12-07T18:11:02;-0.80;99.90
38458;DHT22;24239;48.058;10.486;2022-12-07T18:13:27;-1.00;99.90
38458;DHT22;24239;48.058;10.486;2022-12-07T18:16:29;-1.00;99.90
38458;DHT22;24239;48.058;10.486;2022-12-07T18:18:59;-1.00;99.90
38458;DHT22;24239;48.058;10.486;2022-12-07T18:21:28;-0.90;99.90
38458;DHT22;24239;48.058;10.486;2022-12-07T18:23:57;-1.10;99.90
38458;DHT22;24239;48.058;10.486;2022-12-07T18:26:24;-1.10;99.90
38458;DHT22;24239;48.058;10.486;2022-12-07T18:28:52;-1.10;99.90
38458;DHT22;24239;48.058;10.486;2022-12-07T18:31:19;-1.20;99.90
38458;DHT22;24239;48.058;10.486;2022-12-07T18:33:46;-1.10;99.90
38458;DHT22;24239;48.058;10.486;2022-12-07T18:36:14;-1.00;99.90
38458;DHT22;24239;48.058;10.486;2022-12-07T18:38:40;-1.00;99.90
38458;DHT22;24239;48.058;10.486;2022-12-07T18:41:07;-1.00;99.90
38458;DHT22;24239;48.058;10.486;2022-12-07T18:43:33;-0.80;99.90
38458;DHT22;24239;48.058;10.486;2022-12-07T18:45:59;-0.70;99.90
38458;DHT22;24239;48.058;10.486;2022-12-07T18:48:25;-0.70;99.90
38458;DHT22;24239;48.058;10.486;2022-12-07T18:51:02;-0.60;99.90
38458;DHT22;24239;48.058;10.486;2022-12-07T18:53:28;-0.40;99.90
38458;DHT22;24239;48.058;10.486;2022-12-07T18:56:18;-0.60;99.90
38458;DHT22;24239;48.058;10.486;2022-12-07T18:58:48;-0.60;99.90
38458;DHT22;24239;48.058;10.486;2022-12-07T19:01:33;-0.60;99.90
38458;DHT22;24239;48.058;10.486;2022-12-07T19:03:59;-0.60;99.90
38458;DHT22;24239;48.058;10.486;2022-12-07T19:06:25;-0.60;99.90
38458;DHT22;24239;48.058;10.486;2022-12-07T19:08:52;-0.60;99.90
38458;DHT22;24239;48.058;10.486;2022-12-07T19:11:23;-0.60;99.90
38458;DHT22;24239;48.058;10.486;2022-12-07T19:14:08;-0.60;99.90
38458;DHT22;24239;48.058;10.486;2022-12-07T19:16:34;-0.50;99.90
38458;DHT22;24239;48.058;10.486;2022-12-07T19:19:00;-0.60;99.90
38458;DHT22;24239;48.058;10.486;2022-12-07T19:21:25;-0.30;99.90
38458;DHT22;24239;48.058;10.486;2022-12-07T19:23:52;-0.40;99.90
38458;DHT22;24239;48.058;10.486;2022-12-07T19:26:20;-0.30;99.90
38458;DHT22;24239;48.058;10.486;2022-12-07T19:28:46;-0.40;99.90
38458;DHT22;24239;48.058;10.486;2022-12-07T19:31:12;-0.30;99.90
38458;DHT22;24239;48.058;10.486;2022-12-07T19:33:38;-0.20;99.90
38458;DHT22;24239;48.058;10.486;2022-12-07T19:36:04;-0.20;99.90
38458;DHT22;24239;48.058;10.486;2022-12-07T19:38:33;-0.30;99.90
38458;DHT22;24239;48.058;10.486;2022-12-07T19:41:11;-0.20;99.90
38458;DHT22;24239;48.058;10.486;2022-12-07T19:44:02;-0.10;99.90
38458;DHT22;24239;48.058;10.486;2022-12-07T19:46:32;-0.10;99.90
38458;DHT22;24239;48.058;10.486;2022-12-07T19:48:58;-0.30;99.90
38458;DHT22;24239;48.058;10.486;2022-12-07T19:51:25;-0.20;99.90
38458;DHT22;24239;48.058;10.486;2022-12-07T19:53:52;-0.20;99.90
38458;DHT22;24239;48.058;10.486;2022-12-07T19:56:19;-0.10;99.90
38458;DHT22;24239;48.058;10.486;2022-12-07T19:58:46;-0.10;99.90
38458;DHT22;24239;48.058;10.486;2022-12-07T20:01:13;-0.20;99.90
38458;DHT22;24239;48.058;10.486;2022-12-07T20:03:39;-0.20;99.90
38458;DHT22;24239;48.058;10.486;2022-12-07T20:06:17;-0.20;99.90
38458;DHT22;24239;48.058;10.486;2022-12-07T20:08:46;-0.20;99.90
38458;DHT22;24239;48.058;10.486;2022-12-07T20:11:13;-0.30;99.90
38458;DHT22;24239;48.058;10.486;2022-12-07T20:13:58;-0.20;99.90
38458;DHT22;24239;48.058;10.486;2022-12-07T20:16:24;-0.20;99.90
38458;DHT22;24239;48.058;10.486;2022-12-07T20:18:51;-0.30;99.90